Time;durP1;ratioP1;P1;durP2;ratioP2;P2;SDS_P1;SDS_P2;PMS_P1;PMS_P2;Temp;Humidity;BMP_temperature;BMP_pressure;BME280_temperature;BME280_humidity;BME280_pressure;Samples;Min_cycle;Max_cycle;Signal;HPM_P1;HPM_P2
2022/02/26 21:17:14;;;;;;;;;;;4.00;99.90;;;;;;1089948;53;37185;-79
2022/02/26 21:20:43;;;;;;;14.30;8.50;;;8.40;60.30;;;;;;1083458;54;20068;-77
2022/02/26 21:22:05;;;;;;;16.42;8.35;;;8.30;59.80;;;;;;1086234;47;20038;-78
2022/02/26 21:23:26;;;;;;;14.25;8.80;;;8.40;59.50;;;;;;1085615;54;20057;-78
2022/02/26 21:24:47;;;;;;;13.73;8.68;;;8.40;59.00;;;;;;1085171;46;20034;-77
2022/02/26 21:26:11;;;;;;;19.60;10.32;;;8.40;58.60;;;;;;1085052;47;20798;-78
2022/02/26 21:27:32;;;;;;;17.48;9.60;;;8.40;58.30;;;;;;1087892;46;20014;-79
2022/02/26 21:28:54;;;;;;;14.05;9.20;;;8.30;58.10;;;;;;1087931;47;20026;-79
2022/02/26 21:30:15;;;;;;;18.67;9.52;;;8.30;57.90;;;;;;1086066;47;20041;-78
2022/02/26 21:31:36;;;;;;;17.80;10.18;;;8.30;57.80;;;;;;1087215;47;20046;-78
2022/02/26 21:32:57;;;;;;;18.48;10.40;;;8.20;57.60;;;;;;1086387;47;20035;-76
2022/02/26 21:34:18;;;;;;;16.65;9.05;;;8.20;57.60;;;;;;1086606;47;20071;-79
2022/02/26 21:36:42;;;;;;;14.73;9.05;;;8.10;57.10;;;;;;1083274;54;20015;-77
2022/02/26 21:38:04;;;;;;;14.55;8.55;;;8.00;57.50;;;;;;1088027;47;20038;-79
2022/02/26 21:39:25;;;;;;;16.15;8.50;;;8.00;57.70;;;;;;1087825;47;20050;-80
2022/02/26 21:40:46;;;;;;;12.43;8.20;;;8.00;57.60;;;;;;1088917;47;20018;-80
2022/02/26 21:42:07;;;;;;;15.45;8.77;;;7.90;57.70;;;;;;1086732;47;20090;-77
2022/02/26 21:43:28;;;;;;;11.65;7.68;;;7.90;57.70;;;;;;1082825;47;20034;-77
2022/02/26 21:44:49;;;;;;;13.38;7.82;;;7.80;57.60;;;;;;1082211;47;20034;-77
2022/02/26 21:46:10;;;;;;;12.68;8.05;;;7.80;57.80;;;;;;1081749;47;20041;-74
2022/02/26 21:47:31;;;;;;;13.45;7.90;;;7.80;57.80;;;;;;1087974;39;20347;-76
2022/02/26 21:48:53;;;;;;;13.23;7.32;;;7.80;57.80;;;;;;1085486;47;20046;-76
2022/02/26 21:50:14;;;;;;;10.02;7.55;;;7.70;57.90;;;;;;1083219;47;20043;-77
2022/02/26 21:51:35;;;;;;;15.00;7.85;;;7.70;58.10;;;;;;1084307;47;20034;-76
2022/02/26 21:52:57;;;;;;;12.68;7.45;;;7.70;58.20;;;;;;1084071;47;20034;-77
2022/02/26 21:54:21;;;;;;;13.65;7.47;;;7.60;58.20;;;;;;1084392;47;20137;-76
2022/02/26 21:55:45;;;;;;;12.13;7.38;;;7.60;58.30;;;;;;1083754;47;20035;-74
2022/02/26 21:57:06;;;;;;;11.57;6.57;;;7.60;58.50;;;;;;1081977;54;20042;-74
2022/02/26 21:58:27;;;;;;;14.07;7.57;;;7.60;58.60;;;;;;1083092;47;20035;-78
2022/02/26 21:59:48;;;;;;;9.93;6.30;;;7.50;58.60;;;;;;1085673;47;20034;-75
2022/02/26 22:01:14;;;;;;;12.18;7.40;;;7.50;58.60;;;;;;1086625;47;20034;-75
2022/02/26 22:02:35;;;;;;;14.85;7.45;;;7.50;58.60;;;;;;1084888;47;20051;-75
2022/02/26 22:03:56;;;;;;;13.20;7.50;;;7.40;58.70;;;;;;1087253;47;20067;-76
2022/02/26 22:05:17;;;;;;;12.27;7.35;;;7.40;58.80;;;;;;1087627;47;20035;-76
2022/02/26 22:06:38;;;;;;;12.63;8.05;;;7.40;58.80;;;;;;1088261;47;20027;-77
2022/02/26 22:07:59;;;;;;;12.50;7.55;;;7.40;58.90;;;;;;1088254;47;20018;-76
2022/02/26 22:09:20;;;;;;;11.25;6.93;;;7.40;59.00;;;;;;1088171;47;20031;-77
2022/02/26 22:10:43;;;;;;;10.52;7.00;;;7.40;59.00;;;;;;1088196;47;20035;-77
2022/02/26 22:12:05;;;;;;;13.07;7.05;;;7.30;59.00;;;;;;1089340;47;20015;-77
2022/02/26 22:13:26;;;;;;;11.23;7.07;;;7.30;59.20;;;;;;1088790;39;20379;-77
2022/02/26 22:14:47;;;;;;;14.82;7.85;;;7.30;59.10;;;;;;1089098;47;20038;-78
2022/02/26 22:16:08;;;;;;;12.10;7.65;;;7.30;59.20;;;;;;1089064;47;20033;-77
2022/02/26 22:17:29;;;;;;;10.57;6.88;;;7.30;59.70;;;;;;1087915;47;20034;-76
2022/02/26 22:22:01;;;;;;;9.05;6.93;;;7.20;59.60;;;;;;1085556;54;20142;-77
2022/02/26 22:23:23;;;;;;;15.88;7.22;;;7.20;59.80;;;;;;1084629;47;20034;-78
2022/02/26 22:24:44;;;;;;;12.90;7.97;;;7.20;59.90;;;;;;1083967;47;20041;-77
2022/02/26 22:26:05;;;;;;;14.60;7.20;;;7.20;59.90;;;;;;1083147;47;20046;-79
2022/02/26 22:27:26;;;;;;;13.85;7.85;;;7.20;60.00;;;;;;1082998;47;20045;-78
2022/02/26 22:28:47;;;;;;;14.63;7.47;;;7.10;60.00;;;;;;1084478;47;20035;-79
2022/02/26 22:30:09;;;;;;;10.32;6.88;;;7.20;60.20;;;;;;1083987;47;20046;-79
2022/02/26 22:31:30;;;;;;;11.32;7.22;;;7.10;60.20;;;;;;1085496;47;20030;-79
2022/02/26 22:32:51;;;;;;;12.75;7.30;;;7.10;60.10;;;;;;1086031;47;20154;-80
2022/02/26 22:34:13;;;;;;;13.27;7.13;;;7.10;60.10;;;;;;1084348;47;20031;-77
2022/02/26 22:35:34;;;;;;;12.55;6.97;;;7.10;60.10;;;;;;1083957;47;20130;-77
2022/02/26 22:36:55;;;;;;;13.35;6.88;;;7.10;60.20;;;;;;1083931;47;20080;-78
2022/02/26 22:38:16;;;;;;;14.63;7.53;;;7.10;60.20;;;;;;1084452;47;20038;-77
2022/02/26 22:39:37;;;;;;;16.42;7.20;;;7.00;60.40;;;;;;1081727;54;20153;-77
2022/02/26 22:40:58;;;;;;;10.40;6.93;;;7.00;60.60;;;;;;1081919;47;20062;-76
2022/02/26 22:42:19;;;;;;;10.95;7.05;;;7.00;60.70;;;;;;1083049;47;20034;-76
2022/02/26 22:43:42;;;;;;;12.27;6.95;;;7.00;60.80;;;;;;1083893;39;20624;-76
2022/02/26 22:45:05;;;;;;;10.70;6.47;;;7.00;61.30;;;;;;1083264;47;20042;-76
2022/02/26 22:46:26;;;;;;;17.50;7.28;;;7.00;61.40;;;;;;1082164;47;20034;-76
2022/02/26 22:47:47;;;;;;;13.10;6.93;;;7.00;61.10;;;;;;1084066;39;20626;-76
2022/02/26 22:49:08;;;;;;;12.07;6.78;;;6.90;61.00;;;;;;1083655;46;20085;-76
2022/02/26 22:50:28;;;;;;;11.85;7.10;;;6.90;61.10;;;;;;1082476;46;20035;-76
2022/02/26 22:51:50;;;;;;;9.73;6.65;;;6.90;61.20;;;;;;1082684;46;20130;-75
2022/02/26 22:53:11;;;;;;;14.88;7.43;;;6.90;61.50;;;;;;1081954;47;20038;-76
2022/02/26 22:54:33;;;;;;;9.68;6.75;;;6.90;61.30;;;;;;1081815;47;20039;-76
2022/02/26 22:55:55;;;;;;;12.93;6.72;;;6.90;61.40;;;;;;1082816;46;20039;-76
2022/02/26 22:57:16;;;;;;;10.30;6.15;;;6.90;61.40;;;;;;1082775;46;20042;-77
2022/02/26 22:58:38;;;;;;;11.40;6.68;;;6.90;61.30;;;;;;1082992;46;20082;-77
2022/02/26 22:59:59;;;;;;;12.90;6.82;;;6.90;61.30;;;;;;1081995;46;20038;-76
2022/02/26 23:01:22;;;;;;;9.95;5.93;;;6.80;61.40;;;;;;1083095;47;20042;-76
2022/02/26 23:02:43;;;;;;;12.05;6.85;;;6.80;61.40;;;;;;1083195;46;20089;-77
2022/02/26 23:04:04;;;;;;;10.85;6.13;;;6.80;61.40;;;;;;1082662;46;20082;-77
2022/02/26 23:05:26;;;;;;;11.02;6.38;;;6.80;61.50;;;;;;1083185;39;20363;-76
2022/02/26 23:06:48;;;;;;;11.77;7.03;;;6.70;61.60;;;;;;1082247;46;20062;-75
2022/02/26 23:08:09;;;;;;;12.30;6.50;;;6.70;61.60;;;;;;1082975;46;20060;-77
2022/02/26 23:09:30;;;;;;;11.27;7.07;;;6.80;61.60;;;;;;1082786;46;20126;-76
2022/02/26 23:10:51;;;;;;;9.98;6.47;;;6.70;61.60;;;;;;1082184;46;20035;-77
2022/02/26 23:12:12;;;;;;;10.93;6.38;;;6.70;61.60;;;;;;1081992;46;20046;-77
2022/02/26 23:13:34;;;;;;;15.68;6.55;;;6.70;61.60;;;;;;1082502;46;20087;-76
2022/02/26 23:14:55;;;;;;;11.88;6.85;;;6.70;61.80;;;;;;1082773;46;20035;-76
2022/02/26 23:16:16;;;;;;;9.68;5.97;;;6.70;61.80;;;;;;1081935;46;20038;-75
2022/02/26 23:17:38;;;;;;;12.57;6.57;;;6.70;61.90;;;;;;1082568;46;20034;-76
2022/02/26 23:19:02;;;;;;;7.75;6.10;;;6.70;61.80;;;;;;1082727;46;20054;-76
2022/02/26 23:20:23;;;;;;;10.00;6.22;;;6.60;62.20;;;;;;1083038;39;20355;-75
2022/02/26 23:21:44;;;;;;;11.07;7.07;;;6.60;61.80;;;;;;1083773;39;20644;-76
2022/02/26 23:23:06;;;;;;;10.77;6.60;;;6.60;61.80;;;;;;1082429;47;20038;-76
2022/02/26 23:24:27;;;;;;;11.15;6.10;;;6.60;62.00;;;;;;1082171;46;20078;-77
2022/02/26 23:25:48;;;;;;;10.25;6.30;;;6.60;62.00;;;;;;1082092;46;20046;-76
2022/02/26 23:27:10;;;;;;;10.77;6.30;;;6.60;62.10;;;;;;1082957;46;20072;-75
2022/02/26 23:28:31;;;;;;;15.18;7.45;;;6.60;62.20;;;;;;1082447;46;20050;-75
2022/02/26 23:29:51;;;;;;;10.35;6.75;;;6.50;62.00;;;;;;1082686;46;20035;-76
2022/02/26 23:31:12;;;;;;;9.93;6.18;;;6.60;62.10;;;;;;1082991;47;20038;-77
2022/02/26 23:32:34;;;;;;;8.77;5.93;;;6.50;62.10;;;;;;1084110;46;20065;-77
2022/02/26 23:33:55;;;;;;;12.88;6.50;;;6.50;62.20;;;;;;1083482;46;20031;-76
2022/02/26 23:35:16;;;;;;;10.77;6.47;;;6.50;62.10;;;;;;1082960;46;20098;-77
2022/02/26 23:36:37;;;;;;;10.52;6.57;;;6.50;62.20;;;;;;1082987;47;20129;-77
2022/02/26 23:37:58;;;;;;;10.73;6.90;;;6.50;62.20;;;;;;1082932;46;20072;-77
2022/02/26 23:39:19;;;;;;;11.15;6.60;;;6.50;62.40;;;;;;1083174;46;20039;-77
2022/02/26 23:40:40;;;;;;;11.48;6.78;;;6.50;62.40;;;;;;1083016;46;20041;-77
2022/02/26 23:42:02;;;;;;;11.57;6.53;;;6.50;62.60;;;;;;1082618;46;20158;-77
2022/02/26 23:43:23;;;;;;;9.57;6.28;;;6.50;62.70;;;;;;1082214;46;20038;-77
2022/02/26 23:44:44;;;;;;;14.98;6.78;;;6.40;62.70;;;;;;1083345;46;20011;-77
2022/02/26 23:46:05;;;;;;;13.05;6.90;;;6.40;62.70;;;;;;1082536;46;20898;-77
2022/02/26 23:47:26;;;;;;;11.23;5.93;;;6.40;62.80;;;;;;1083552;46;20042;-77
2022/02/26 23:48:47;;;;;;;12.68;6.78;;;6.40;62.70;;;;;;1083803;46;20034;-79
2022/02/26 23:50:09;;;;;;;10.77;6.25;;;6.40;62.70;;;;;;1085007;46;20062;-79
2022/02/26 23:51:31;;;;;;;10.85;6.85;;;6.40;62.90;;;;;;1083540;46;20090;-79
2022/02/26 23:52:53;;;;;;;14.05;7.60;;;6.40;62.90;;;;;;1083940;46;20046;-79
2022/02/26 23:54:14;;;;;;;14.45;7.57;;;6.40;63.10;;;;;;1083893;46;20055;-76
2022/02/26 23:55:35;;;;;;;14.20;6.35;;;6.30;63.00;;;;;;1082073;46;20057;-76
2022/02/26 23:56:56;;;;;;;11.80;7.00;;;6.30;63.00;;;;;;1082050;54;20054;-76
2022/02/26 23:58:19;;;;;;;10.80;6.32;;;6.30;63.20;;;;;;1081707;46;20050;-76
2022/02/26 23:59:40;;;;;;;11.15;6.25;;;6.30;63.10;;;;;;1083503;39;20470;-76
